createdAt,value
2023-03-06T00:00:29.722Z,3.92
2023-03-06T00:02:57.215Z,5.13
2023-03-06T00:05:24.201Z,4.78
2023-03-06T00:07:50.785Z,3.30
2023-03-06T00:10:23.242Z,4.60
2023-03-06T00:12:54.755Z,3.72
2023-03-06T00:15:21.930Z,3.75
2023-03-06T00:17:48.581Z,3.55
2023-03-06T00:20:15.713Z,5.10
2023-03-06T00:22:42.540Z,5.68
2023-03-06T00:25:13.468Z,4.53
2023-03-06T00:27:40.141Z,3.15
2023-03-06T00:30:11.876Z,5.25
2023-03-06T00:32:38.449Z,3.45
2023-03-06T00:35:06.184Z,4.30
2023-03-06T00:37:32.837Z,3.33
2023-03-06T00:39:59.467Z,3.03
2023-03-06T00:42:26.063Z,3.45
2023-03-06T00:44:52.754Z,4.38
2023-03-06T00:47:19.361Z,3.92
2023-03-06T00:49:46.166Z,3.72
2023-03-06T00:52:13.491Z,6.20
2023-03-06T00:54:40.659Z,5.93
2023-03-06T00:57:07.647Z,3.35
2023-03-06T00:59:34.273Z,4.50
2023-03-06T01:02:00.849Z,4.40
2023-03-06T01:04:27.411Z,4.03
2023-03-06T01:06:54.069Z,4.95
2023-03-06T01:09:21.143Z,3.15
2023-03-06T01:11:47.661Z,3.05
2023-03-06T01:14:14.240Z,4.07
2023-03-06T01:16:40.969Z,4.00
2023-03-06T01:19:07.576Z,3.90
2023-03-06T01:21:34.082Z,3.85
2023-03-06T01:24:00.591Z,3.58
2023-03-06T01:26:27.147Z,3.45
2023-03-06T01:28:53.720Z,2.88
2023-03-06T01:31:20.266Z,3.83
2023-03-06T01:33:46.774Z,3.88
2023-03-06T01:36:13.399Z,4.15
2023-03-06T01:38:39.972Z,4.57
2023-03-06T01:41:07.037Z,3.40
2023-03-06T01:43:34.778Z,4.50
2023-03-06T01:46:23.026Z,4.32
2023-03-06T01:48:54.437Z,3.58
2023-03-06T01:51:22.030Z,3.10
2023-03-06T01:53:50.963Z,6.57
2023-03-06T01:56:17.971Z,3.75
2023-03-06T01:58:45.051Z,5.65
2023-03-06T02:01:14.519Z,4.18
2023-03-06T02:03:42.678Z,3.33
2023-03-06T02:06:09.317Z,3.10
2023-03-06T02:08:35.890Z,3.47
2023-03-06T02:11:15.157Z,2.90
2023-03-06T02:13:42.890Z,3.70
2023-03-06T02:16:10.841Z,3.85
2023-03-06T02:18:38.220Z,4.70
2023-03-06T02:21:08.589Z,3.95
2023-03-06T02:23:48.066Z,4.70
2023-03-06T02:26:16.106Z,4.18
2023-03-06T02:28:43.062Z,3.42
2023-03-06T02:31:21.676Z,4.10
2023-03-06T02:34:03.864Z,4.40
2023-03-06T02:36:33.389Z,3.80
2023-03-06T02:39:00.113Z,3.58
2023-03-06T02:41:26.921Z,2.80
2023-03-06T02:43:53.509Z,3.90
2023-03-06T02:46:20.590Z,3.42
2023-03-06T02:48:47.242Z,4.68
2023-03-06T02:51:13.939Z,3.45
2023-03-06T02:53:40.461Z,3.42
2023-03-06T02:56:07.496Z,4.72
2023-03-06T02:58:34.117Z,4.20
2023-03-06T03:01:00.648Z,4.50
2023-03-06T03:03:27.254Z,3.17
2023-03-06T03:05:53.830Z,2.95
2023-03-06T03:08:20.416Z,3.83
2023-03-06T03:10:46.954Z,3.72
2023-03-06T03:13:13.571Z,4.60
2023-03-06T03:15:41.222Z,2.50
2023-03-06T03:18:07.778Z,3.45
2023-03-06T03:20:34.327Z,3.03
2023-03-06T03:23:00.844Z,5.50
2023-03-06T03:25:27.437Z,2.95
2023-03-06T03:27:54.226Z,4.72
2023-03-06T03:30:20.884Z,4.35
2023-03-06T03:32:47.414Z,3.53
2023-03-06T03:35:14.138Z,2.78
2023-03-06T03:37:40.698Z,3.63
2023-03-06T03:40:07.888Z,3.00
2023-03-06T03:42:34.504Z,3.47
2023-03-06T03:45:01.335Z,2.35
2023-03-06T03:47:27.889Z,4.38
2023-03-06T03:49:54.462Z,3.67
2023-03-06T03:52:21.059Z,3.65
2023-03-06T03:54:47.610Z,3.63
2023-03-06T03:57:14.238Z,4.20
2023-03-06T03:59:40.849Z,3.92
2023-03-06T04:02:07.456Z,5.30
2023-03-06T04:04:34.150Z,2.30
2023-03-06T04:07:01.774Z,5.07
2023-03-06T04:09:28.287Z,3.88
2023-03-06T04:11:54.989Z,5.15
2023-03-06T04:14:21.635Z,3.85
2023-03-06T04:16:48.203Z,4.82
2023-03-06T04:19:14.803Z,4.70
2023-03-06T04:21:41.370Z,3.92
2023-03-06T04:24:08.310Z,3.97
2023-03-06T04:26:36.093Z,3.63
2023-03-06T04:29:02.756Z,4.38
2023-03-06T04:31:29.315Z,3.30
2023-03-06T04:33:55.861Z,3.45
2023-03-06T04:36:28.582Z,4.88
2023-03-06T04:38:55.282Z,4.25
2023-03-06T04:41:22.230Z,4.40
2023-03-06T04:43:49.078Z,4.65
2023-03-06T04:46:16.023Z,4.40
2023-03-06T04:48:42.965Z,6.00
2023-03-06T04:51:14.316Z,4.00
2023-03-06T04:53:40.949Z,5.05
2023-03-06T04:56:07.859Z,6.70
2023-03-06T04:58:34.388Z,4.72
2023-03-06T05:01:00.994Z,5.53
2023-03-06T05:03:27.690Z,4.22
2023-03-06T05:05:54.210Z,6.75
2023-03-06T05:08:20.871Z,6.18
2023-03-06T05:10:58.813Z,4.05
2023-03-06T05:13:26.774Z,6.72
2023-03-06T05:15:53.416Z,5.40
2023-03-06T05:18:20.738Z,6.47
2023-03-06T05:20:47.296Z,9.43
2023-03-06T05:23:13.823Z,5.13
2023-03-06T05:25:40.891Z,6.28
2023-03-06T05:28:08.046Z,4.85
2023-03-06T05:30:35.092Z,5.75
2023-03-06T05:33:01.650Z,5.65
2023-03-06T05:35:28.261Z,5.45
2023-03-06T05:37:54.997Z,6.07
2023-03-06T05:40:21.594Z,8.43
2023-03-06T05:42:48.256Z,6.03
2023-03-06T05:45:15.008Z,6.95
2023-03-06T05:47:41.666Z,6.68
2023-03-06T05:50:10.420Z,4.45
2023-03-06T05:52:39.542Z,4.97
2023-03-06T05:55:07.423Z,6.05
2023-03-06T05:57:34.225Z,6.22
2023-03-06T06:00:00.896Z,5.85
2023-03-06T06:02:27.527Z,6.53
2023-03-06T06:04:54.062Z,6.65
2023-03-06T06:07:20.661Z,5.68
2023-03-06T06:09:47.263Z,4.75
2023-03-06T06:12:15.522Z,6.53
2023-03-06T06:14:42.023Z,5.07
2023-03-06T06:17:08.676Z,6.13
2023-03-06T06:19:35.380Z,4.10
2023-03-06T06:22:03.817Z,7.38
2023-03-06T06:24:31.065Z,6.57
2023-03-06T06:26:58.898Z,7.60
2023-03-06T06:29:27.645Z,6.00
2023-03-06T06:31:54.734Z,5.85
2023-03-06T06:34:22.885Z,6.28
2023-03-06T06:36:52.165Z,5.43
2023-03-06T06:39:21.371Z,5.68
2023-03-06T06:42:02.617Z,5.72
2023-03-06T06:44:37.012Z,6.30
2023-03-06T06:47:24.111Z,6.28
2023-03-06T06:49:55.785Z,6.63
2023-03-06T06:52:23.391Z,6.07
2023-03-06T06:54:50.058Z,5.60
2023-03-06T06:57:17.393Z,6.15
2023-03-06T06:59:44.088Z,5.88
2023-03-06T07:02:15.813Z,6.13
2023-03-06T07:04:56.514Z,6.13
2023-03-06T07:07:29.708Z,4.70
2023-03-06T07:09:56.657Z,5.90
2023-03-06T07:12:23.182Z,4.57
2023-03-06T07:14:49.753Z,4.45
2023-03-06T07:17:16.527Z,4.25
2023-03-06T07:19:43.090Z,5.32
2023-03-06T07:22:09.905Z,5.90
2023-03-06T07:24:36.483Z,5.32
2023-03-06T07:27:03.078Z,5.82
2023-03-06T07:29:29.683Z,4.80
2023-03-06T07:31:56.341Z,4.38
2023-03-06T07:34:22.936Z,4.70
2023-03-06T07:36:50.855Z,5.78
2023-03-06T07:39:17.425Z,4.47
2023-03-06T07:41:44.222Z,3.45
2023-03-06T07:44:10.818Z,4.55
2023-03-06T07:46:37.432Z,4.13
2023-03-06T07:49:04.201Z,4.85
2023-03-06T07:51:30.736Z,4.93
2023-03-06T07:53:57.335Z,4.72
2023-03-06T07:56:23.854Z,5.43
2023-03-06T07:58:50.377Z,7.20
2023-03-06T08:01:19.904Z,6.05
2023-03-06T08:03:47.333Z,4.63
2023-03-06T08:06:19.613Z,4.95
2023-03-06T08:08:47.846Z,5.10
2023-03-06T08:11:16.480Z,5.00
2023-03-06T08:13:43.970Z,4.18
2023-03-06T08:16:11.369Z,3.67
2023-03-06T08:18:39.776Z,5.65
2023-03-06T08:21:13.225Z,5.80
2023-03-06T08:23:40.266Z,4.30
2023-03-06T08:26:10.454Z,4.30
2023-03-06T08:28:37.058Z,5.05
2023-03-06T08:31:18.707Z,4.68
2023-03-06T08:33:45.330Z,3.50
2023-03-06T08:36:11.889Z,4.00
2023-03-06T08:38:38.418Z,4.50
2023-03-06T08:41:05.196Z,3.70
2023-03-06T08:43:31.856Z,3.42
2023-03-06T08:45:59.072Z,4.03
2023-03-06T08:48:25.923Z,3.80
2023-03-06T08:50:52.653Z,3.17
2023-03-06T08:53:19.830Z,4.13
2023-03-06T08:55:46.734Z,4.20
2023-03-06T08:58:13.401Z,4.60
2023-03-06T09:00:40.081Z,4.70
2023-03-06T09:03:06.590Z,5.13
2023-03-06T09:05:33.839Z,4.20
2023-03-06T09:08:00.361Z,4.38
2023-03-06T09:10:27.490Z,3.40
2023-03-06T09:12:55.373Z,3.28
2023-03-06T09:15:22.998Z,3.45
2023-03-06T09:17:50.808Z,4.03
2023-03-06T09:20:18.142Z,4.05
2023-03-06T09:22:45.781Z,4.50
2023-03-06T09:25:20.392Z,4.20
2023-03-06T09:27:51.374Z,3.60
2023-03-06T09:30:22.304Z,3.80
2023-03-06T09:32:48.931Z,3.53
2023-03-06T09:35:15.517Z,3.88
2023-03-06T09:37:42.038Z,4.07
2023-03-06T09:40:18.068Z,4.63
2023-03-06T09:47:53.037Z,4.30
2023-03-06T09:50:29.166Z,4.00
2023-03-06T09:52:58.696Z,4.50
2023-03-06T09:55:28.870Z,2.72
2023-03-06T09:58:23.126Z,2.90
2023-03-06T10:01:17.172Z,4.65
2023-03-06T10:04:05.300Z,4.20
2023-03-06T10:06:45.678Z,4.05
2023-03-06T10:09:22.617Z,3.35
2023-03-06T10:12:00.648Z,3.53
2023-03-06T10:15:21.084Z,4.00
2023-03-06T10:17:48.095Z,3.55
2023-03-06T10:20:33.696Z,2.53
2023-03-06T10:23:42.396Z,3.03
2023-03-06T10:26:32.882Z,2.15
2023-03-06T10:29:19.681Z,3.20
2023-03-06T10:31:56.089Z,2.55
2023-03-06T10:34:37.518Z,2.75
2023-03-06T10:37:20.904Z,2.38
2023-03-06T10:39:54.848Z,2.25
2023-03-06T10:42:21.430Z,4.15
2023-03-06T10:44:48.045Z,2.05
2023-03-06T10:47:32.421Z,2.75
2023-03-06T10:50:06.650Z,2.22
2023-03-06T10:52:35.901Z,2.67
2023-03-06T10:55:30.292Z,2.88
2023-03-06T10:57:57.124Z,3.05
2023-03-06T11:00:35.921Z,2.45
2023-03-06T11:03:23.929Z,2.08
2023-03-06T11:06:06.740Z,2.33
2023-03-06T11:08:33.952Z,3.08
2023-03-06T11:11:36.495Z,2.72
2023-03-06T11:14:15.129Z,1.98
2023-03-06T11:16:53.252Z,3.28
2023-03-06T11:19:26.564Z,2.75
2023-03-06T11:22:19.787Z,2.97
2023-03-06T11:24:50.493Z,2.00
2023-03-06T11:27:30.880Z,2.38
2023-03-06T11:30:00.076Z,2.33
2023-03-06T11:32:34.752Z,2.25
2023-03-06T11:35:13.774Z,3.05
2023-03-06T11:37:49.503Z,2.42
2023-03-06T11:40:20.049Z,1.80
2023-03-06T11:43:23.351Z,2.88
2023-03-06T11:46:21.541Z,2.55
2023-03-06T11:49:34.877Z,2.88
2023-03-06T11:52:09.047Z,1.75
2023-03-06T11:54:36.081Z,1.98
2023-03-06T11:57:12.511Z,3.30
2023-03-06T11:59:45.267Z,2.47
2023-03-06T12:02:36.168Z,1.88
2023-03-06T12:05:26.867Z,2.95
2023-03-06T12:08:08.853Z,2.17
2023-03-06T12:10:38.166Z,1.85
2023-03-06T12:13:38.193Z,1.90
2023-03-06T12:16:30.950Z,2.22
2023-03-06T12:19:04.775Z,2.40
2023-03-06T12:22:01.273Z,1.85
2023-03-06T12:24:42.857Z,1.35
2023-03-06T12:27:35.421Z,1.50
2023-03-06T12:30:44.774Z,1.65
2023-03-06T12:33:14.194Z,2.33
2023-03-06T12:36:01.993Z,1.83
2023-03-06T12:38:51.407Z,1.42
2023-03-06T12:41:36.241Z,1.90
2023-03-06T12:44:27.513Z,1.58
2023-03-06T12:47:01.884Z,1.50
2023-03-06T12:49:32.859Z,1.77
2023-03-06T12:52:02.173Z,1.38
2023-03-06T12:54:35.051Z,1.08
2023-03-06T12:57:01.953Z,1.48
2023-03-06T12:59:48.004Z,1.38
2023-03-06T13:02:46.562Z,1.15
2023-03-06T13:05:33.148Z,1.38
2023-03-06T13:08:14.005Z,1.05
2023-03-06T13:10:43.541Z,1.35
2023-03-06T13:13:33.408Z,1.75
2023-03-06T13:16:18.450Z,0.90
2023-03-06T13:18:50.821Z,0.93
2023-03-06T13:21:42.354Z,1.38
2023-03-06T13:24:21.381Z,1.48
2023-03-06T13:26:52.818Z,1.40
2023-03-06T13:29:37.622Z,1.23
2023-03-06T13:32:04.356Z,1.10
2023-03-06T13:34:48.108Z,1.45
2023-03-06T13:37:18.444Z,2.00
2023-03-06T13:39:54.059Z,1.38
2023-03-06T13:42:36.805Z,1.40
2023-03-06T13:45:22.784Z,2.10
2023-03-06T13:50:44.311Z,2.10
2023-03-06T13:53:29.348Z,2.03
2023-03-06T13:56:21.695Z,2.17
2023-03-06T13:59:06.319Z,3.20
2023-03-06T14:02:01.971Z,1.98
2023-03-06T14:04:36.974Z,2.92
2023-03-06T14:07:20.350Z,2.63
2023-03-06T14:09:50.508Z,4.25
2023-03-06T14:12:28.126Z,3.70
2023-03-06T14:14:57.916Z,5.82
2023-03-06T14:17:33.680Z,5.78
2023-03-06T14:20:05.718Z,5.20
2023-03-06T14:22:32.231Z,5.75
2023-03-06T14:25:07.948Z,5.53
2023-03-06T14:27:54.985Z,5.05
2023-03-06T14:30:26.054Z,4.60
2023-03-06T14:32:55.077Z,6.07
2023-03-06T14:35:28.648Z,6.15
2023-03-06T14:38:06.633Z,7.13
2023-03-06T14:40:42.611Z,5.00
2023-03-06T14:43:20.248Z,6.95
2023-03-06T14:45:55.111Z,5.53
2023-03-06T14:48:22.874Z,6.28
2023-03-06T14:50:55.019Z,5.55
2023-03-06T14:53:29.085Z,5.53
2023-03-06T14:56:01.764Z,5.95
2023-03-06T14:58:33.383Z,5.95
2023-03-06T15:01:05.074Z,4.68
2023-03-06T15:03:41.317Z,4.43
2023-03-06T15:06:12.045Z,3.38
2023-03-06T15:08:40.226Z,3.85
2023-03-06T15:11:07.404Z,4.03
2023-03-06T15:13:34.455Z,4.78
2023-03-06T15:16:12.933Z,4.28
2023-03-06T15:18:55.735Z,4.57
2023-03-06T15:21:23.923Z,4.47
2023-03-06T15:23:52.860Z,3.78
2023-03-06T15:26:32.967Z,4.00
2023-03-06T15:29:09.629Z,4.07
2023-03-06T15:31:39.087Z,4.32
2023-03-06T15:34:09.218Z,3.92
2023-03-06T15:36:36.723Z,5.13
2023-03-06T15:39:26.070Z,4.70
2023-03-06T15:42:24.825Z,4.50
2023-03-06T15:44:54.053Z,7.03
2023-03-06T15:47:21.797Z,5.18
2023-03-06T15:49:53.050Z,4.82
2023-03-06T15:52:21.647Z,5.57
2023-03-06T15:54:48.324Z,6.53
2023-03-06T15:57:23.144Z,6.82
2023-03-06T15:59:50.507Z,6.45
2023-03-06T16:02:22.262Z,5.10
2023-03-06T16:04:49.549Z,4.68
2023-03-06T16:07:16.285Z,5.75
2023-03-06T16:09:43.215Z,5.50
2023-03-06T16:12:18.760Z,5.35
2023-03-06T16:14:47.333Z,6.72
2023-03-06T16:17:14.418Z,5.78
2023-03-06T16:19:41.678Z,6.28
2023-03-06T16:22:08.448Z,5.18
2023-03-06T16:24:35.153Z,5.95
2023-03-06T16:27:02.570Z,4.75
2023-03-06T16:29:30.559Z,5.88
2023-03-06T16:31:58.792Z,5.43
2023-03-06T16:34:25.633Z,5.40
2023-03-06T16:36:52.290Z,6.15
2023-03-06T16:39:21.412Z,6.43
2023-03-06T16:41:49.481Z,6.80
2023-03-06T16:44:16.356Z,7.18
2023-03-06T16:46:45.822Z,8.07
2023-03-06T16:49:24.087Z,4.55
2023-03-06T16:51:51.601Z,5.53
2023-03-06T16:54:18.728Z,6.47
2023-03-06T16:56:45.440Z,5.78
2023-03-06T16:59:12.584Z,5.80
2023-03-06T17:01:42.899Z,5.22
2023-03-06T17:04:09.674Z,9.40
2023-03-06T17:06:36.240Z,7.15
2023-03-06T17:09:02.835Z,7.45
2023-03-06T17:11:29.703Z,6.30
2023-03-06T17:13:56.305Z,6.93
2023-03-06T17:16:23.009Z,8.13
2023-03-06T17:18:49.862Z,6.38
2023-03-06T17:21:18.410Z,7.75
2023-03-06T17:23:45.744Z,7.00
2023-03-06T17:26:14.911Z,8.73
2023-03-06T17:28:41.919Z,8.70
2023-03-06T17:31:34.950Z,8.20
2023-03-06T17:34:01.487Z,8.02
2023-03-06T17:36:29.308Z,7.78
2023-03-06T17:39:00.809Z,7.68
2023-03-06T17:41:27.977Z,9.68
2023-03-06T17:43:58.301Z,10.10
2023-03-06T17:46:25.725Z,8.63
2023-03-06T17:48:52.315Z,9.68
2023-03-06T17:51:18.889Z,8.18
2023-03-06T17:53:45.486Z,7.75
2023-03-06T17:56:13.888Z,10.88
2023-03-06T17:58:40.420Z,8.75
2023-03-06T18:01:15.106Z,9.02
2023-03-06T18:03:46.667Z,10.52
2023-03-06T18:06:13.980Z,9.23
2023-03-06T18:08:41.092Z,9.07
2023-03-06T18:11:09.935Z,7.63
2023-03-06T18:13:39.385Z,8.65
2023-03-06T18:16:06.869Z,10.73
2023-03-06T18:18:33.887Z,8.65
2023-03-06T18:21:09.173Z,7.00
2023-03-06T18:23:36.784Z,8.43
2023-03-06T18:26:11.695Z,8.57
2023-03-06T18:28:42.636Z,10.85
2023-03-06T18:31:21.405Z,9.50
2023-03-06T18:33:49.157Z,8.38
2023-03-06T18:36:16.869Z,9.60
2023-03-06T18:38:45.497Z,7.72
2023-03-06T18:41:13.086Z,9.73
2023-03-06T18:43:39.799Z,7.47
2023-03-06T18:46:06.787Z,9.85
2023-03-06T18:48:33.389Z,8.90
2023-03-06T18:51:07.669Z,9.68
2023-03-06T18:53:35.291Z,8.50
2023-03-06T18:56:02.604Z,11.68
2023-03-06T18:58:29.550Z,9.30
2023-03-06T19:00:58.329Z,9.80
2023-03-06T19:03:25.799Z,9.00
2023-03-06T19:05:52.444Z,8.75
2023-03-06T19:08:19.016Z,10.45
2023-03-06T19:10:46.270Z,10.35
2023-03-06T19:13:13.612Z,11.57
2023-03-06T19:15:48.565Z,9.52
2023-03-06T19:18:18.108Z,10.00
2023-03-06T19:20:50.343Z,8.98
2023-03-06T19:23:16.902Z,9.13
2023-03-06T19:25:43.515Z,10.40
2023-03-06T19:28:10.158Z,9.43
2023-03-06T19:30:40.101Z,11.43
2023-03-06T19:33:06.676Z,10.68
2023-03-06T19:35:35.058Z,12.50
2023-03-06T19:38:01.597Z,11.85
2023-03-06T19:40:28.167Z,13.40
2023-03-06T19:42:55.711Z,12.27
2023-03-06T19:45:22.257Z,10.48
2023-03-06T19:47:50.234Z,12.10
2023-03-06T19:50:16.813Z,11.48
2023-03-06T19:52:43.330Z,11.07
2023-03-06T19:55:10.603Z,11.07
2023-03-06T19:57:37.145Z,11.10
2023-03-06T20:00:04.863Z,12.07
2023-03-06T20:02:32.598Z,12.40
2023-03-06T20:04:59.182Z,12.13
2023-03-06T20:07:25.787Z,11.15
2023-03-06T20:09:52.454Z,9.80
2023-03-06T20:12:18.989Z,11.32
2023-03-06T20:14:46.234Z,11.05
2023-03-06T20:17:12.811Z,10.48
2023-03-06T20:19:39.559Z,8.93
2023-03-06T20:22:06.086Z,9.15
2023-03-06T20:24:32.607Z,9.15
2023-03-06T20:26:59.496Z,9.60
2023-03-06T20:29:28.134Z,10.50
2023-03-06T20:31:57.927Z,10.05
2023-03-06T20:34:25.220Z,8.40
2023-03-06T20:36:51.839Z,9.35
2023-03-06T20:39:24.034Z,8.77
2023-03-06T20:41:50.602Z,9.00
2023-03-06T20:44:19.610Z,8.48
2023-03-06T20:46:47.384Z,7.65
2023-03-06T20:49:14.690Z,12.48
2023-03-06T20:51:41.799Z,10.40
2023-03-06T20:54:11.027Z,11.60
2023-03-06T20:56:39.565Z,11.43
2023-03-06T20:59:07.968Z,8.80
2023-03-06T21:01:38.399Z,9.82
2023-03-06T21:04:04.998Z,9.60
2023-03-06T21:06:32.322Z,11.18
2023-03-06T21:09:00.559Z,13.43
2023-03-06T21:11:27.909Z,11.57
2023-03-06T21:13:55.018Z,15.45
2023-03-06T21:16:24.646Z,11.32
2023-03-06T21:18:53.420Z,10.63
2023-03-06T21:21:22.614Z,13.48
2023-03-06T21:23:49.424Z,10.25
2023-03-06T21:26:19.612Z,12.48
2023-03-06T21:28:46.618Z,12.13
2023-03-06T21:31:15.181Z,11.52
2023-03-06T21:33:42.024Z,13.20
2023-03-06T21:36:09.379Z,15.30
2023-03-06T21:38:36.684Z,11.68
2023-03-06T21:41:14.528Z,12.27
2023-03-06T21:43:41.812Z,12.05
2023-03-06T21:46:09.082Z,12.48
2023-03-06T21:48:36.175Z,11.13
2023-03-06T21:51:15.804Z,12.38
2023-03-06T21:53:43.680Z,11.88
2023-03-06T21:56:11.152Z,10.43
2023-03-06T21:58:37.819Z,12.32
2023-03-06T22:01:17.998Z,10.55
2023-03-06T22:03:44.592Z,11.23
2023-03-06T22:06:17.410Z,11.48
2023-03-06T22:08:45.301Z,9.73
2023-03-06T22:11:14.618Z,10.18
2023-03-06T22:13:41.716Z,10.18
2023-03-06T22:16:08.824Z,12.50
2023-03-06T22:18:35.778Z,15.27
2023-03-06T22:21:10.074Z,11.75
2023-03-06T22:23:37.077Z,11.98
2023-03-06T22:26:05.957Z,10.05
2023-03-06T22:28:33.016Z,11.32
2023-03-06T22:31:17.673Z,11.35
2023-03-06T22:33:44.883Z,13.13
2023-03-06T22:36:14.180Z,10.82
2023-03-06T22:38:42.926Z,12.43
2023-03-06T22:41:10.895Z,10.68
2023-03-06T22:43:37.911Z,14.68
2023-03-06T22:46:06.949Z,13.60
2023-03-06T22:48:33.585Z,11.68
2023-03-06T22:51:15.284Z,12.07
2023-03-06T22:53:42.294Z,12.57
2023-03-06T22:56:11.925Z,11.80
2023-03-06T22:58:39.321Z,12.65
2023-03-06T23:01:15.203Z,12.80
2023-03-06T23:03:44.655Z,11.40
2023-03-06T23:06:26.857Z,10.90
2023-03-06T23:09:02.591Z,14.00
2023-03-06T23:11:30.284Z,11.07
2023-03-06T23:13:57.506Z,12.60
2023-03-06T23:16:24.272Z,12.18
2023-03-06T23:18:52.706Z,11.23
2023-03-06T23:21:21.516Z,12.40
2023-03-06T23:23:49.908Z,10.32
2023-03-06T23:26:18.297Z,11.85
2023-03-06T23:28:45.026Z,10.52
2023-03-06T23:31:17.773Z,11.95
2023-03-06T23:33:44.439Z,12.45
2023-03-06T23:36:13.374Z,12.52
2023-03-06T23:38:40.641Z,10.43
2023-03-06T23:41:10.839Z,10.25
2023-03-06T23:43:37.378Z,13.20
2023-03-06T23:46:04.725Z,11.98
2023-03-06T23:48:31.535Z,12.23
2023-03-06T23:50:58.218Z,12.98
2023-03-06T23:53:25.334Z,10.98
2023-03-06T23:55:52.559Z,10.68
2023-03-06T23:58:19.756Z,10.43
